sensor_id;sensor_type;location;lat;lon;timestamp;temperature;humidity
26378;DHT22;14078;50.974;6.786;2023-04-16T00:01:29;8.00;99.90
26378;DHT22;14078;50.974;6.786;2023-04-16T00:03:55;8.00;99.90
26378;DHT22;14078;50.974;6.786;2023-04-16T00:06:22;8.00;99.90
26378;DHT22;14078;50.974;6.786;2023-04-16T00:08:48;8.00;99.90
26378;DHT22;14078;50.974;6.786;2023-04-16T00:11:17;7.90;99.90
26378;DHT22;14078;50.974;6.786;2023-04-16T00:13:43;8.00;99.90
26378;DHT22;14078;50.974;6.786;2023-04-16T00:16:10;8.00;99.90
26378;DHT22;14078;50.974;6.786;2023-04-16T00:18:36;8.00;99.90
26378;DHT22;14078;50.974;6.786;2023-04-16T00:21:03;7.90;99.90
26378;DHT22;14078;50.974;6.786;2023-04-16T00:23:30;8.00;99.90
26378;DHT22;14078;50.974;6.786;2023-04-16T00:25:56;8.00;99.90
26378;DHT22;14078;50.974;6.786;2023-04-16T00:28:25;8.00;99.90
26378;DHT22;14078;50.974;6.786;2023-04-16T00:30:52;8.00;99.90
26378;DHT22;14078;50.974;6.786;2023-04-16T00:33:18;8.00;99.90
26378;DHT22;14078;50.974;6.786;2023-04-16T00:35:45;7.90;99.90
26378;DHT22;14078;50.974;6.786;2023-04-16T00:38:12;8.00;99.90
26378;DHT22;14078;50.974;6.786;2023-04-16T00:40:38;8.00;99.90
26378;DHT22;14078;50.974;6.786;2023-04-16T00:43:05;8.00;99.90
26378;DHT22;14078;50.974;6.786;2023-04-16T00:45:33;8.00;99.90
26378;DHT22;14078;50.974;6.786;2023-04-16T00:48:00;8.00;99.90
26378;DHT22;14078;50.974;6.786;2023-04-16T00:50:26;7.90;99.90
26378;DHT22;14078;50.974;6.786;2023-04-16T00:52:53;7.90;99.90
26378;DHT22;14078;50.974;6.786;2023-04-16T00:55:20;7.90;99.90
26378;DHT22;14078;50.974;6.786;2023-04-16T00:57:46;8.00;99.90
26378;DHT22;14078;50.974;6.786;2023-04-16T01:00:13;8.00;99.90
26378;DHT22;14078;50.974;6.786;2023-04-16T01:02:41;8.00;99.90
26378;DHT22;14078;50.974;6.786;2023-04-16T01:05:08;8.00;99.90
26378;DHT22;14078;50.974;6.786;2023-04-16T01:07:34;7.90;99.90
26378;DHT22;14078;50.974;6.786;2023-04-16T01:10:01;8.00;99.90
26378;DHT22;14078;50.974;6.786;2023-04-16T01:12:28;8.00;99.90
26378;DHT22;14078;50.974;6.786;2023-04-16T01:14:54;7.90;99.90
26378;DHT22;14078;50.974;6.786;2023-04-16T01:17:21;8.00;99.90
26378;DHT22;14078;50.974;6.786;2023-04-16T01:19:49;8.00;99.90
26378;DHT22;14078;50.974;6.786;2023-04-16T01:22:17;8.00;99.90
26378;DHT22;14078;50.974;6.786;2023-04-16T01:24:43;8.00;99.90
26378;DHT22;14078;50.974;6.786;2023-04-16T01:27:10;8.00;99.90
26378;DHT22;14078;50.974;6.786;2023-04-16T01:29:36;8.00;99.90
26378;DHT22;14078;50.974;6.786;2023-04-16T01:32:03;8.00;99.90
26378;DHT22;14078;50.974;6.786;2023-04-16T01:34:30;8.00;99.90
26378;DHT22;14078;50.974;6.786;2023-04-16T01:36:56;8.00;99.90
26378;DHT22;14078;50.974;6.786;2023-04-16T01:39:24;8.00;99.90
26378;DHT22;14078;50.974;6.786;2023-04-16T01:41:51;7.90;99.90
26378;DHT22;14078;50.974;6.786;2023-04-16T01:44:18;7.90;99.90
26378;DHT22;14078;50.974;6.786;2023-04-16T01:46:45;7.90;99.90
26378;DHT22;14078;50.974;6.786;2023-04-16T01:49:12;8.00;99.90
26378;DHT22;14078;50.974;6.786;2023-04-16T01:51:38;8.00;99.90
26378;DHT22;14078;50.974;6.786;2023-04-16T01:54:06;7.90;99.90
26378;DHT22;14078;50.974;6.786;2023-04-16T01:56:34;7.90;99.90
26378;DHT22;14078;50.974;6.786;2023-04-16T01:59:00;7.90;99.90
26378;DHT22;14078;50.974;6.786;2023-04-16T02:01:27;7.90;99.90
26378;DHT22;14078;50.974;6.786;2023-04-16T02:03:54;7.90;99.90
26378;DHT22;14078;50.974;6.786;2023-04-16T02:06:20;7.90;99.90
26378;DHT22;14078;50.974;6.786;2023-04-16T02:08:47;7.90;99.90
26378;DHT22;14078;50.974;6.786;2023-04-16T02:11:14;7.90;99.90
26378;DHT22;14078;50.974;6.786;2023-04-16T02:13:41;8.00;99.90
26378;DHT22;14078;50.974;6.786;2023-04-16T02:16:08;7.90;99.90
26378;DHT22;14078;50.974;6.786;2023-04-16T02:18:34;8.00;99.90
26378;DHT22;14078;50.974;6.786;2023-04-16T02:21:01;7.90;99.90
26378;DHT22;14078;50.974;6.786;2023-04-16T02:23:28;7.90;99.90
26378;DHT22;14078;50.974;6.786;2023-04-16T02:25:54;8.00;99.90
26378;DHT22;14078;50.974;6.786;2023-04-16T02:28:21;8.00;99.90
26378;DHT22;14078;50.974;6.786;2023-04-16T02:30:49;8.00;99.90
26378;DHT22;14078;50.974;6.786;2023-04-16T02:33:15;8.00;99.90
26378;DHT22;14078;50.974;6.786;2023-04-16T02:35:42;8.00;99.90
26378;DHT22;14078;50.974;6.786;2023-04-16T02:38:08;8.00;99.90
26378;DHT22;14078;50.974;6.786;2023-04-16T02:40:35;8.10;99.90
26378;DHT22;14078;50.974;6.786;2023-04-16T02:43:01;8.00;99.90
26378;DHT22;14078;50.974;6.786;2023-04-16T02:45:28;8.00;99.90
26378;DHT22;14078;50.974;6.786;2023-04-16T02:47:57;8.00;99.90
26378;DHT22;14078;50.974;6.786;2023-04-16T02:50:23;8.00;99.90
26378;DHT22;14078;50.974;6.786;2023-04-16T02:52:50;8.00;99.90
26378;DHT22;14078;50.974;6.786;2023-04-16T02:55:16;8.00;99.90
26378;DHT22;14078;50.974;6.786;2023-04-16T02:57:43;7.90;99.90
26378;DHT22;14078;50.974;6.786;2023-04-16T03:00:10;8.00;99.90
26378;DHT22;14078;50.974;6.786;2023-04-16T03:02:37;7.90;99.90
26378;DHT22;14078;50.974;6.786;2023-04-16T03:05:05;7.90;99.90
26378;DHT22;14078;50.974;6.786;2023-04-16T03:07:31;7.90;99.90
26378;DHT22;14078;50.974;6.786;2023-04-16T03:09:58;8.00;99.90
26378;DHT22;14078;50.974;6.786;2023-04-16T03:12:24;7.90;99.90
26378;DHT22;14078;50.974;6.786;2023-04-16T03:14:51;7.90;99.90
26378;DHT22;14078;50.974;6.786;2023-04-16T03:17:17;7.90;99.90
26378;DHT22;14078;50.974;6.786;2023-04-16T03:19:44;7.90;99.90
26378;DHT22;14078;50.974;6.786;2023-04-16T03:22:12;7.90;99.90
26378;DHT22;14078;50.974;6.786;2023-04-16T03:24:38;7.90;99.90
26378;DHT22;14078;50.974;6.786;2023-04-16T03:27:05;7.90;99.90
26378;DHT22;14078;50.974;6.786;2023-04-16T03:29:31;7.90;99.90
26378;DHT22;14078;50.974;6.786;2023-04-16T03:31:58;7.90;99.90
26378;DHT22;14078;50.974;6.786;2023-04-16T03:34:24;7.90;99.90
26378;DHT22;14078;50.974;6.786;2023-04-16T03:36:51;7.90;99.90
26378;DHT22;14078;50.974;6.786;2023-04-16T03:39:19;7.90;99.90
26378;DHT22;14078;50.974;6.786;2023-04-16T03:41:45;7.90;99.90
26378;DHT22;14078;50.974;6.786;2023-04-16T03:44:12;8.00;99.90
26378;DHT22;14078;50.974;6.786;2023-04-16T03:46:38;7.90;99.90
26378;DHT22;14078;50.974;6.786;2023-04-16T03:49:05;7.90;99.90
26378;DHT22;14078;50.974;6.786;2023-04-16T03:51:31;7.90;99.90
26378;DHT22;14078;50.974;6.786;2023-04-16T03:53:58;7.90;99.90
26378;DHT22;14078;50.974;6.786;2023-04-16T03:56:26;7.90;99.90
26378;DHT22;14078;50.974;6.786;2023-04-16T03:58:52;7.90;99.90
26378;DHT22;14078;50.974;6.786;2023-04-16T04:01:19;7.90;99.90
26378;DHT22;14078;50.974;6.786;2023-04-16T04:03:45;7.90;99.90
26378;DHT22;14078;50.974;6.786;2023-04-16T04:06:14;7.90;99.90
26378;DHT22;14078;50.974;6.786;2023-04-16T04:08:40;7.90;99.90
26378;DHT22;14078;50.974;6.786;2023-04-16T04:11:07;7.90;99.90
26378;DHT22;14078;50.974;6.786;2023-04-16T04:13:35;7.90;99.90
26378;DHT22;14078;50.974;6.786;2023-04-16T04:16:01;7.90;99.90
26378;DHT22;14078;50.974;6.786;2023-04-16T04:18:28;7.90;99.90
26378;DHT22;14078;50.974;6.786;2023-04-16T04:20:54;7.90;99.90
26378;DHT22;14078;50.974;6.786;2023-04-16T04:23:21;7.90;99.90
26378;DHT22;14078;50.974;6.786;2023-04-16T04:25:48;8.00;99.90
26378;DHT22;14078;50.974;6.786;2023-04-16T04:28:14;7.90;99.90
26378;DHT22;14078;50.974;6.786;2023-04-16T04:30:42;7.90;99.90
26378;DHT22;14078;50.974;6.786;2023-04-16T04:33:09;7.90;99.90
26378;DHT22;14078;50.974;6.786;2023-04-16T04:35:35;7.90;99.90
26378;DHT22;14078;50.974;6.786;2023-04-16T04:38:02;8.00;99.90
26378;DHT22;14078;50.974;6.786;2023-04-16T04:40:28;8.00;99.90
26378;DHT22;14078;50.974;6.786;2023-04-16T04:42:55;7.90;99.90
26378;DHT22;14078;50.974;6.786;2023-04-16T04:45:21;7.90;99.90
26378;DHT22;14078;50.974;6.786;2023-04-16T04:47:51;7.90;99.90
26378;DHT22;14078;50.974;6.786;2023-04-16T04:50:17;7.90;99.90
26378;DHT22;14078;50.974;6.786;2023-04-16T04:52:44;7.90;99.90
26378;DHT22;14078;50.974;6.786;2023-04-16T04:55:10;8.00;99.90
26378;DHT22;14078;50.974;6.786;2023-04-16T04:57:38;8.00;99.90
26378;DHT22;14078;50.974;6.786;2023-04-16T05:00:05;8.00;99.90
26378;DHT22;14078;50.974;6.786;2023-04-16T05:02:32;7.90;99.90
26378;DHT22;14078;50.974;6.786;2023-04-16T05:05:00;8.00;99.90
26378;DHT22;14078;50.974;6.786;2023-04-16T05:07:26;8.00;99.90
26378;DHT22;14078;50.974;6.786;2023-04-16T05:09:53;8.00;99.90
26378;DHT22;14078;50.974;6.786;2023-04-16T05:12:19;8.00;99.90
26378;DHT22;14078;50.974;6.786;2023-04-16T05:14:46;8.00;99.90
26378;DHT22;14078;50.974;6.786;2023-04-16T05:17:12;8.00;99.90
26378;DHT22;14078;50.974;6.786;2023-04-16T05:19:39;8.00;99.90
26378;DHT22;14078;50.974;6.786;2023-04-16T05:22:07;8.10;99.90
26378;DHT22;14078;50.974;6.786;2023-04-16T05:24:33;8.00;99.90
26378;DHT22;14078;50.974;6.786;2023-04-16T05:27:00;8.10;99.90
26378;DHT22;14078;50.974;6.786;2023-04-16T05:29:26;8.10;99.90
26378;DHT22;14078;50.974;6.786;2023-04-16T05:31:53;8.10;99.90
26378;DHT22;14078;50.974;6.786;2023-04-16T05:34:19;8.10;99.90
26378;DHT22;14078;50.974;6.786;2023-04-16T05:36:46;8.10;99.90
26378;DHT22;14078;50.974;6.786;2023-04-16T05:39:15;8.10;99.90
26378;DHT22;14078;50.974;6.786;2023-04-16T05:41:42;8.10;99.90
26378;DHT22;14078;50.974;6.786;2023-04-16T05:44:08;8.10;99.90
26378;DHT22;14078;50.974;6.786;2023-04-16T05:46:35;8.10;99.90
26378;DHT22;14078;50.974;6.786;2023-04-16T05:49:01;8.20;99.90
26378;DHT22;14078;50.974;6.786;2023-04-16T05:51:28;8.10;99.90
26378;DHT22;14078;50.974;6.786;2023-04-16T05:53:56;8.10;99.90
26378;DHT22;14078;50.974;6.786;2023-04-16T05:56:24;8.10;99.90
26378;DHT22;14078;50.974;6.786;2023-04-16T05:58:51;8.20;99.90
26378;DHT22;14078;50.974;6.786;2023-04-16T06:01:17;8.20;99.90
26378;DHT22;14078;50.974;6.786;2023-04-16T06:03:44;8.10;99.90
26378;DHT22;14078;50.974;6.786;2023-04-16T06:06:11;8.20;99.90
26378;DHT22;14078;50.974;6.786;2023-04-16T06:08:37;8.20;99.90
26378;DHT22;14078;50.974;6.786;2023-04-16T06:11:04;8.20;99.90
26378;DHT22;14078;50.974;6.786;2023-04-16T06:13:32;8.20;99.90
26378;DHT22;14078;50.974;6.786;2023-04-16T06:15:58;8.20;99.90
26378;DHT22;14078;50.974;6.786;2023-04-16T06:18:25;8.20;99.90
26378;DHT22;14078;50.974;6.786;2023-04-16T06:20:51;8.20;99.90
26378;DHT22;14078;50.974;6.786;2023-04-16T06:23:18;8.20;99.90
26378;DHT22;14078;50.974;6.786;2023-04-16T06:25:44;8.20;99.90
26378;DHT22;14078;50.974;6.786;2023-04-16T06:28:11;8.30;99.90
26378;DHT22;14078;50.974;6.786;2023-04-16T06:30:39;8.20;99.90
26378;DHT22;14078;50.974;6.786;2023-04-16T06:33:05;8.20;99.90
26378;DHT22;14078;50.974;6.786;2023-04-16T06:35:32;8.20;99.90
26378;DHT22;14078;50.974;6.786;2023-04-16T06:37:58;8.20;99.90
26378;DHT22;14078;50.974;6.786;2023-04-16T06:40:25;8.20;99.90
26378;DHT22;14078;50.974;6.786;2023-04-16T06:42:52;8.30;99.90
26378;DHT22;14078;50.974;6.786;2023-04-16T06:45:18;8.20;99.90
26378;DHT22;14078;50.974;6.786;2023-04-16T06:47:46;8.30;99.90
26378;DHT22;14078;50.974;6.786;2023-04-16T06:50:14;8.30;99.90
26378;DHT22;14078;50.974;6.786;2023-04-16T06:52:40;8.20;99.90
26378;DHT22;14078;50.974;6.786;2023-04-16T06:55:07;8.30;99.90
26378;DHT22;14078;50.974;6.786;2023-04-16T06:57:34;8.30;99.90
26378;DHT22;14078;50.974;6.786;2023-04-16T07:00:00;8.30;99.90
26378;DHT22;14078;50.974;6.786;2023-04-16T07:02:27;8.30;99.90
26378;DHT22;14078;50.974;6.786;2023-04-16T07:04:55;8.30;99.90
26378;DHT22;14078;50.974;6.786;2023-04-16T07:07:21;8.30;99.90
26378;DHT22;14078;50.974;6.786;2023-04-16T07:09:48;8.30;99.90
26378;DHT22;14078;50.974;6.786;2023-04-16T07:12:14;8.30;99.90
26378;DHT22;14078;50.974;6.786;2023-04-16T07:14:41;8.30;99.90
26378;DHT22;14078;50.974;6.786;2023-04-16T07:17:07;8.30;99.90
26378;DHT22;14078;50.974;6.786;2023-04-16T07:19:34;8.30;99.90
26378;DHT22;14078;50.974;6.786;2023-04-16T07:22:03;8.30;99.90
26378;DHT22;14078;50.974;6.786;2023-04-16T07:24:29;8.30;99.90
26378;DHT22;14078;50.974;6.786;2023-04-16T07:26:56;8.30;99.90
26378;DHT22;14078;50.974;6.786;2023-04-16T07:29:23;8.30;99.90
26378;DHT22;14078;50.974;6.786;2023-04-16T07:31:49;8.30;99.90
26378;DHT22;14078;50.974;6.786;2023-04-16T07:34:16;8.30;99.90
26378;DHT22;14078;50.974;6.786;2023-04-16T07:36:43;8.40;99.90
26378;DHT22;14078;50.974;6.786;2023-04-16T07:39:13;8.40;99.90
26378;DHT22;14078;50.974;6.786;2023-04-16T07:41:39;8.40;99.90
26378;DHT22;14078;50.974;6.786;2023-04-16T07:44:06;8.40;99.90
26378;DHT22;14078;50.974;6.786;2023-04-16T07:46:33;8.40;99.90
26378;DHT22;14078;50.974;6.786;2023-04-16T07:48:59;8.40;99.90
26378;DHT22;14078;50.974;6.786;2023-04-16T07:51:26;8.40;99.90
26378;DHT22;14078;50.974;6.786;2023-04-16T07:53:52;8.50;99.90
26378;DHT22;14078;50.974;6.786;2023-04-16T07:56:20;8.50;99.90
26378;DHT22;14078;50.974;6.786;2023-04-16T07:58:47;8.50;99.90
26378;DHT22;14078;50.974;6.786;2023-04-16T08:01:13;8.50;99.90
26378;DHT22;14078;50.974;6.786;2023-04-16T08:03:40;8.50;99.90
26378;DHT22;14078;50.974;6.786;2023-04-16T08:06:10;8.50;99.90
26378;DHT22;14078;50.974;6.786;2023-04-16T08:08:36;8.50;99.90
26378;DHT22;14078;50.974;6.786;2023-04-16T08:11:03;8.60;99.90
26378;DHT22;14078;50.974;6.786;2023-04-16T08:13:31;8.60;99.90
26378;DHT22;14078;50.974;6.786;2023-04-16T08:15:57;8.70;99.90
26378;DHT22;14078;50.974;6.786;2023-04-16T08:18:24;8.70;99.90
26378;DHT22;14078;50.974;6.786;2023-04-16T08:20:51;8.70;99.90
26378;DHT22;14078;50.974;6.786;2023-04-16T08:23:17;8.80;99.90
26378;DHT22;14078;50.974;6.786;2023-04-16T08:25:44;8.80;99.90
26378;DHT22;14078;50.974;6.786;2023-04-16T08:28:10;8.90;99.90
26378;DHT22;14078;50.974;6.786;2023-04-16T08:30:38;9.00;99.90
26378;DHT22;14078;50.974;6.786;2023-04-16T08:33:05;9.00;99.90
26378;DHT22;14078;50.974;6.786;2023-04-16T08:35:31;9.00;99.90
26378;DHT22;14078;50.974;6.786;2023-04-16T08:37:58;9.00;99.90
26378;DHT22;14078;50.974;6.786;2023-04-16T08:40:28;9.00;99.90
26378;DHT22;14078;50.974;6.786;2023-04-16T08:42:57;9.10;99.90
26378;DHT22;14078;50.974;6.786;2023-04-16T08:45:25;9.10;99.90
26378;DHT22;14078;50.974;6.786;2023-04-16T08:47:53;9.20;99.90
26378;DHT22;14078;50.974;6.786;2023-04-16T08:50:21;9.50;99.90
26378;DHT22;14078;50.974;6.786;2023-04-16T08:52:49;9.70;99.90
26378;DHT22;14078;50.974;6.786;2023-04-16T08:55:17;9.90;99.90
26378;DHT22;14078;50.974;6.786;2023-04-16T08:57:46;10.00;99.90
26378;DHT22;14078;50.974;6.786;2023-04-16T09:00:13;10.10;99.90
26378;DHT22;14078;50.974;6.786;2023-04-16T09:02:40;10.10;99.90
26378;DHT22;14078;50.974;6.786;2023-04-16T09:05:09;10.20;99.90
26378;DHT22;14078;50.974;6.786;2023-04-16T09:07:36;10.30;99.90
26378;DHT22;14078;50.974;6.786;2023-04-16T09:10:03;10.20;99.90
26378;DHT22;14078;50.974;6.786;2023-04-16T09:12:31;10.40;99.90
26378;DHT22;14078;50.974;6.786;2023-04-16T09:14:58;10.50;99.90
26378;DHT22;14078;50.974;6.786;2023-04-16T09:17:27;10.60;99.90
26378;DHT22;14078;50.974;6.786;2023-04-16T09:19:54;10.50;99.90
26378;DHT22;14078;50.974;6.786;2023-04-16T09:22:22;10.40;99.90
26378;DHT22;14078;50.974;6.786;2023-04-16T09:24:48;10.50;99.90
26378;DHT22;14078;50.974;6.786;2023-04-16T09:27:15;10.50;99.90
26378;DHT22;14078;50.974;6.786;2023-04-16T09:29:42;10.40;99.90
26378;DHT22;14078;50.974;6.786;2023-04-16T09:32:09;10.40;99.90
26378;DHT22;14078;50.974;6.786;2023-04-16T09:37:17;10.40;99.90
26378;DHT22;14078;50.974;6.786;2023-04-16T09:39:52;10.50;99.90
26378;DHT22;14078;50.974;6.786;2023-04-16T09:42:20;10.50;99.90
26378;DHT22;14078;50.974;6.786;2023-04-16T09:44:48;10.50;99.90
26378;DHT22;14078;50.974;6.786;2023-04-16T09:47:14;10.60;99.90
26378;DHT22;14078;50.974;6.786;2023-04-16T09:49:41;10.60;99.90
26378;DHT22;14078;50.974;6.786;2023-04-16T09:52:08;10.70;99.90
26378;DHT22;14078;50.974;6.786;2023-04-16T09:54:34;10.80;99.90
26378;DHT22;14078;50.974;6.786;2023-04-16T09:57:02;10.90;99.90
26378;DHT22;14078;50.974;6.786;2023-04-16T09:59:30;10.90;99.90
26378;DHT22;14078;50.974;6.786;2023-04-16T10:01:59;11.00;99.90
26378;DHT22;14078;50.974;6.786;2023-04-16T10:04:25;11.10;99.90
26378;DHT22;14078;50.974;6.786;2023-04-16T10:07:01;11.00;99.90
26378;DHT22;14078;50.974;6.786;2023-04-16T10:09:30;10.90;99.90
26378;DHT22;14078;50.974;6.786;2023-04-16T10:11:56;11.00;99.90
26378;DHT22;14078;50.974;6.786;2023-04-16T10:14:24;11.10;99.90
26378;DHT22;14078;50.974;6.786;2023-04-16T10:16:51;11.10;99.90
26378;DHT22;14078;50.974;6.786;2023-04-16T10:19:18;11.20;99.90
26378;DHT22;14078;50.974;6.786;2023-04-16T10:21:44;11.10;99.90
26378;DHT22;14078;50.974;6.786;2023-04-16T10:24:11;11.10;99.90
26378;DHT22;14078;50.974;6.786;2023-04-16T10:26:40;11.20;99.90
26378;DHT22;14078;50.974;6.786;2023-04-16T10:29:07;11.20;99.90
26378;DHT22;14078;50.974;6.786;2023-04-16T10:31:35;11.20;99.90
26378;DHT22;14078;50.974;6.786;2023-04-16T10:34:03;11.20;99.90
26378;DHT22;14078;50.974;6.786;2023-04-16T10:36:29;11.30;99.90
26378;DHT22;14078;50.974;6.786;2023-04-16T10:38:57;11.40;99.90
26378;DHT22;14078;50.974;6.786;2023-04-16T10:41:24;11.50;99.90
26378;DHT22;14078;50.974;6.786;2023-04-16T10:43:51;11.60;99.90
26378;DHT22;14078;50.974;6.786;2023-04-16T10:46:18;11.60;99.90
26378;DHT22;14078;50.974;6.786;2023-04-16T10:48:46;11.60;99.90
26378;DHT22;14078;50.974;6.786;2023-04-16T10:51:22;11.70;99.90
26378;DHT22;14078;50.974;6.786;2023-04-16T10:53:48;11.50;99.90
26378;DHT22;14078;50.974;6.786;2023-04-16T10:56:21;11.50;99.90
26378;DHT22;14078;50.974;6.786;2023-04-16T10:58:48;11.50;99.90
26378;DHT22;14078;50.974;6.786;2023-04-16T11:01:14;11.50;99.90
26378;DHT22;14078;50.974;6.786;2023-04-16T11:03:46;11.50;99.90
26378;DHT22;14078;50.974;6.786;2023-04-16T11:06:13;11.60;99.90
26378;DHT22;14078;50.974;6.786;2023-04-16T11:08:42;11.70;99.90
26378;DHT22;14078;50.974;6.786;2023-04-16T11:11:10;11.70;99.90
26378;DHT22;14078;50.974;6.786;2023-04-16T11:13:36;11.80;99.90
26378;DHT22;14078;50.974;6.786;2023-04-16T11:16:03;11.90;99.90
26378;DHT22;14078;50.974;6.786;2023-04-16T11:18:30;11.80;99.90
26378;DHT22;14078;50.974;6.786;2023-04-16T11:20:58;11.90;99.90
26378;DHT22;14078;50.974;6.786;2023-04-16T11:23:24;12.00;99.90
26378;DHT22;14078;50.974;6.786;2023-04-16T11:25:51;12.10;99.90
26378;DHT22;14078;50.974;6.786;2023-04-16T11:28:30;12.20;99.90
26378;DHT22;14078;50.974;6.786;2023-04-16T11:30:57;12.40;99.90
26378;DHT22;14078;50.974;6.786;2023-04-16T11:33:24;12.50;99.90
26378;DHT22;14078;50.974;6.786;2023-04-16T11:35:55;12.50;99.90
26378;DHT22;14078;50.974;6.786;2023-04-16T11:38:32;12.50;99.90
26378;DHT22;14078;50.974;6.786;2023-04-16T11:40:59;12.40;99.90
26378;DHT22;14078;50.974;6.786;2023-04-16T11:43:26;12.30;99.90
26378;DHT22;14078;50.974;6.786;2023-04-16T11:45:56;12.10;99.90
26378;DHT22;14078;50.974;6.786;2023-04-16T11:48:22;12.10;99.90
26378;DHT22;14078;50.974;6.786;2023-04-16T11:50:54;12.10;99.90
26378;DHT22;14078;50.974;6.786;2023-04-16T11:53:21;12.10;99.90
26378;DHT22;14078;50.974;6.786;2023-04-16T11:55:49;12.00;99.90
26378;DHT22;14078;50.974;6.786;2023-04-16T11:58:15;12.00;99.90
26378;DHT22;14078;50.974;6.786;2023-04-16T12:00:43;12.10;99.90
26378;DHT22;14078;50.974;6.786;2023-04-16T12:03:10;12.20;99.90
26378;DHT22;14078;50.974;6.786;2023-04-16T12:05:37;12.30;99.90
26378;DHT22;14078;50.974;6.786;2023-04-16T12:08:04;12.30;99.90
26378;DHT22;14078;50.974;6.786;2023-04-16T12:10:31;12.50;99.90
26378;DHT22;14078;50.974;6.786;2023-04-16T12:13:09;12.70;99.90
26378;DHT22;14078;50.974;6.786;2023-04-16T12:15:43;12.90;99.90
26378;DHT22;14078;50.974;6.786;2023-04-16T12:18:10;12.90;99.90
26378;DHT22;14078;50.974;6.786;2023-04-16T12:20:38;12.80;99.90
26378;DHT22;14078;50.974;6.786;2023-04-16T12:23:04;12.80;99.90
26378;DHT22;14078;50.974;6.786;2023-04-16T12:25:31;12.90;99.90
26378;DHT22;14078;50.974;6.786;2023-04-16T12:27:58;12.90;99.10
26378;DHT22;14078;50.974;6.786;2023-04-16T12:30:26;13.00;78.60
26378;DHT22;14078;50.974;6.786;2023-04-16T12:35:35;13.40;96.00
26378;DHT22;14078;50.974;6.786;2023-04-16T12:38:02;13.50;78.40
26378;DHT22;14078;50.974;6.786;2023-04-16T12:40:28;13.60;70.90
26378;DHT22;14078;50.974;6.786;2023-04-16T12:42:55;13.50;71.10
26378;DHT22;14078;50.974;6.786;2023-04-16T12:45:23;13.50;99.90
26378;DHT22;14078;50.974;6.786;2023-04-16T12:47:51;13.70;1.00
26378;DHT22;14078;50.974;6.786;2023-04-16T12:50:17;13.90;1.00
26378;DHT22;14078;50.974;6.786;2023-04-16T12:52:44;14.30;1.00
26378;DHT22;14078;50.974;6.786;2023-04-16T12:55:10;14.20;31.10
26378;DHT22;14078;50.974;6.786;2023-04-16T12:57:38;14.20;1.00
26378;DHT22;14078;50.974;6.786;2023-04-16T13:00:05;14.40;1.00
26378;DHT22;14078;50.974;6.786;2023-04-16T13:02:32;14.20;1.00
26378;DHT22;14078;50.974;6.786;2023-04-16T13:05:00;14.00;59.10
26378;DHT22;14078;50.974;6.786;2023-04-16T13:07:27;14.10;1.00
26378;DHT22;14078;50.974;6.786;2023-04-16T13:09:56;14.00;99.90
26378;DHT22;14078;50.974;6.786;2023-04-16T13:12:22;13.80;1.00
26378;DHT22;14078;50.974;6.786;2023-04-16T13:14:49;13.80;1.00
26378;DHT22;14078;50.974;6.786;2023-04-16T13:17:15;13.70;24.70
26378;DHT22;14078;50.974;6.786;2023-04-16T13:19:42;13.70;99.90
26378;DHT22;14078;50.974;6.786;2023-04-16T13:22:09;13.70;99.90
26378;DHT22;14078;50.974;6.786;2023-04-16T13:24:36;13.90;99.90
26378;DHT22;14078;50.974;6.786;2023-04-16T13:27:03;13.80;99.90
26378;DHT22;14078;50.974;6.786;2023-04-16T13:29:30;13.60;56.10
26378;DHT22;14078;50.974;6.786;2023-04-16T13:31:56;13.70;99.90
26378;DHT22;14078;50.974;6.786;2023-04-16T13:34:23;13.70;99.90
26378;DHT22;14078;50.974;6.786;2023-04-16T13:36:49;13.60;1.00
26378;DHT22;14078;50.974;6.786;2023-04-16T13:39:17;13.60;1.00
26378;DHT22;14078;50.974;6.786;2023-04-16T13:41:44;13.70;98.40
26378;DHT22;14078;50.974;6.786;2023-04-16T13:44:10;13.60;1.00
26378;DHT22;14078;50.974;6.786;2023-04-16T13:46:37;13.50;1.00
26378;DHT22;14078;50.974;6.786;2023-04-16T13:49:03;13.50;82.90
26378;DHT22;14078;50.974;6.786;2023-04-16T13:51:30;13.60;99.90
26378;DHT22;14078;50.974;6.786;2023-04-16T13:53:56;13.50;1.00
26378;DHT22;14078;50.974;6.786;2023-04-16T13:56:24;13.60;1.00
26378;DHT22;14078;50.974;6.786;2023-04-16T13:58:51;13.60;1.00
26378;DHT22;14078;50.974;6.786;2023-04-16T14:01:18;13.70;99.90
26378;DHT22;14078;50.974;6.786;2023-04-16T14:03:44;13.70;99.90
26378;DHT22;14078;50.974;6.786;2023-04-16T14:06:11;13.70;99.90
26378;DHT22;14078;50.974;6.786;2023-04-16T14:08:38;13.90;99.90
26378;DHT22;14078;50.974;6.786;2023-04-16T14:11:04;14.00;99.90
26378;DHT22;14078;50.974;6.786;2023-04-16T14:13:33;14.00;99.90
26378;DHT22;14078;50.974;6.786;2023-04-16T14:16:00;13.90;99.90
26378;DHT22;14078;50.974;6.786;2023-04-16T14:18:27;14.00;99.90
26378;DHT22;14078;50.974;6.786;2023-04-16T14:20:53;13.90;99.90
26378;DHT22;14078;50.974;6.786;2023-04-16T14:23:20;13.80;99.90
26378;DHT22;14078;50.974;6.786;2023-04-16T14:25:48;13.70;99.90
26378;DHT22;14078;50.974;6.786;2023-04-16T14:28:14;13.60;99.90
26378;DHT22;14078;50.974;6.786;2023-04-16T14:30:43;13.50;99.90
26378;DHT22;14078;50.974;6.786;2023-04-16T14:33:10;13.40;1.00
26378;DHT22;14078;50.974;6.786;2023-04-16T14:35:36;13.50;62.60
26378;DHT22;14078;50.974;6.786;2023-04-16T14:38:03;13.60;99.90
26378;DHT22;14078;50.974;6.786;2023-04-16T14:40:29;13.80;99.90
26378;DHT22;14078;50.974;6.786;2023-04-16T14:42:56;14.10;99.90
26378;DHT22;14078;50.974;6.786;2023-04-16T14:45:22;14.30;51.00
26378;DHT22;14078;50.974;6.786;2023-04-16T14:47:52;14.50;99.90
26378;DHT22;14078;50.974;6.786;2023-04-16T14:50:19;14.80;99.90
26378;DHT22;14078;50.974;6.786;2023-04-16T14:52:45;14.80;18.60
26378;DHT22;14078;50.974;6.786;2023-04-16T14:55:12;14.80;1.00
26378;DHT22;14078;50.974;6.786;2023-04-16T14:57:38;14.80;1.00
26378;DHT22;14078;50.974;6.786;2023-04-16T15:00:06;14.90;1.00
26378;DHT22;14078;50.974;6.786;2023-04-16T15:02:34;14.90;1.00
26378;DHT22;14078;50.974;6.786;2023-04-16T15:05:02;14.90;1.00
26378;DHT22;14078;50.974;6.786;2023-04-16T15:07:28;15.20;1.00
26378;DHT22;14078;50.974;6.786;2023-04-16T15:09:55;15.30;1.00
26378;DHT22;14078;50.974;6.786;2023-04-16T15:12:22;15.20;1.00
26378;DHT22;14078;50.974;6.786;2023-04-16T15:14:49;14.90;1.00
26378;DHT22;14078;50.974;6.786;2023-04-16T15:17:15;14.70;1.00
26378;DHT22;14078;50.974;6.786;2023-04-16T15:19:42;14.50;1.00
26378;DHT22;14078;50.974;6.786;2023-04-16T15:22:10;14.30;1.00
26378;DHT22;14078;50.974;6.786;2023-04-16T15:24:36;14.30;1.00
26378;DHT22;14078;50.974;6.786;2023-04-16T15:27:03;14.20;1.00
26378;DHT22;14078;50.974;6.786;2023-04-16T15:29:31;14.10;1.00
26378;DHT22;14078;50.974;6.786;2023-04-16T15:31:57;14.10;1.00
26378;DHT22;14078;50.974;6.786;2023-04-16T15:34:24;14.10;99.90
26378;DHT22;14078;50.974;6.786;2023-04-16T15:36:51;14.10;1.00
26378;DHT22;14078;50.974;6.786;2023-04-16T15:39:19;14.00;1.00
26378;DHT22;14078;50.974;6.786;2023-04-16T15:41:46;14.10;99.90
26378;DHT22;14078;50.974;6.786;2023-04-16T15:44:13;14.00;1.00